sensor_id;sensor_type;location;lat;lon;timestamp;P1;durP1;ratioP1;P2;durP2;ratioP2
25846;SDS011;13676;50.168;8.568;2023-04-25T00:01:57;5.88;;;4.80;;
25846;SDS011;13676;50.168;8.568;2023-04-25T00:04:22;5.38;;;4.80;;
25846;SDS011;13676;50.168;8.568;2023-04-25T00:06:48;6.25;;;5.10;;
25846;SDS011;13676;50.168;8.568;2023-04-25T00:09:13;7.18;;;5.18;;
25846;SDS011;13676;50.168;8.568;2023-04-25T00:11:39;6.53;;;4.60;;
25846;SDS011;13676;50.168;8.568;2023-04-25T00:14:05;8.55;;;5.63;;
25846;SDS011;13676;50.168;8.568;2023-04-25T00:16:31;6.03;;;5.00;;
25846;SDS011;13676;50.168;8.568;2023-04-25T00:18:59;7.30;;;5.68;;
25846;SDS011;13676;50.168;8.568;2023-04-25T00:21:24;5.78;;;5.13;;
25846;SDS011;13676;50.168;8.568;2023-04-25T00:23:50;5.57;;;4.65;;
25846;SDS011;13676;50.168;8.568;2023-04-25T00:26:17;4.60;;;4.20;;
25846;SDS011;13676;50.168;8.568;2023-04-25T00:28:42;4.72;;;4.10;;
25846;SDS011;13676;50.168;8.568;2023-04-25T00:31:07;4.53;;;4.07;;
25846;SDS011;13676;50.168;8.568;2023-04-25T00:33:33;6.18;;;5.05;;
25846;SDS011;13676;50.168;8.568;2023-04-25T00:35:58;7.05;;;5.15;;
25846;SDS011;13676;50.168;8.568;2023-04-25T00:38:24;6.63;;;4.90;;
25846;SDS011;13676;50.168;8.568;2023-04-25T00:40:49;5.05;;;4.30;;
25846;SDS011;13676;50.168;8.568;2023-04-25T00:43:14;6.07;;;5.00;;
25846;SDS011;13676;50.168;8.568;2023-04-25T00:45:40;5.40;;;4.50;;
25846;SDS011;13676;50.168;8.568;2023-04-25T00:48:05;6.45;;;5.47;;
25846;SDS011;13676;50.168;8.568;2023-04-25T00:50:32;7.50;;;5.53;;
25846;SDS011;13676;50.168;8.568;2023-04-25T00:55:24;8.13;;;5.05;;
25846;SDS011;13676;50.168;8.568;2023-04-25T00:57:50;6.60;;;5.15;;
25846;SDS011;13676;50.168;8.568;2023-04-25T01:00:15;6.20;;;4.85;;
25846;SDS011;13676;50.168;8.568;2023-04-25T01:02:41;5.25;;;4.45;;
25846;SDS011;13676;50.168;8.568;2023-04-25T01:05:09;7.40;;;4.65;;
25846;SDS011;13676;50.168;8.568;2023-04-25T01:07:35;4.57;;;4.10;;
25846;SDS011;13676;50.168;8.568;2023-04-25T01:10:01;4.05;;;3.50;;
25846;SDS011;13676;50.168;8.568;2023-04-25T01:12:27;5.05;;;3.60;;
25846;SDS011;13676;50.168;8.568;2023-04-25T01:14:52;4.43;;;3.40;;
25846;SDS011;13676;50.168;8.568;2023-04-25T01:17:18;6.47;;;3.28;;
25846;SDS011;13676;50.168;8.568;2023-04-25T01:19:44;5.95;;;3.45;;
25846;SDS011;13676;50.168;8.568;2023-04-25T01:22:12;6.15;;;4.32;;
25846;SDS011;13676;50.168;8.568;2023-04-25T01:24:39;9.38;;;3.88;;
25846;SDS011;13676;50.168;8.568;2023-04-25T01:27:04;5.20;;;3.58;;
25846;SDS011;13676;50.168;8.568;2023-04-25T01:29:30;8.60;;;3.67;;
25846;SDS011;13676;50.168;8.568;2023-04-25T01:31:56;7.35;;;4.38;;
25846;SDS011;13676;50.168;8.568;2023-04-25T01:34:23;6.17;;;3.90;;
25846;SDS011;13676;50.168;8.568;2023-04-25T01:36:49;5.97;;;3.53;;
25846;SDS011;13676;50.168;8.568;2023-04-25T01:39:15;6.70;;;3.80;;
25846;SDS011;13676;50.168;8.568;2023-04-25T01:41:41;5.50;;;3.50;;
25846;SDS011;13676;50.168;8.568;2023-04-25T01:44:07;7.88;;;4.30;;
25846;SDS011;13676;50.168;8.568;2023-04-25T01:46:33;4.55;;;3.40;;
25846;SDS011;13676;50.168;8.568;2023-04-25T01:48:59;7.47;;;3.53;;
25846;SDS011;13676;50.168;8.568;2023-04-25T01:51:24;6.07;;;3.55;;
25846;SDS011;13676;50.168;8.568;2023-04-25T01:53:50;6.68;;;3.70;;
25846;SDS011;13676;50.168;8.568;2023-04-25T01:56:15;7.15;;;3.75;;
25846;SDS011;13676;50.168;8.568;2023-04-25T01:58:43;8.93;;;4.80;;
25846;SDS011;13676;50.168;8.568;2023-04-25T02:01:08;4.93;;;3.40;;
25846;SDS011;13676;50.168;8.568;2023-04-25T02:03:33;5.95;;;4.38;;
25846;SDS011;13676;50.168;8.568;2023-04-25T02:05:59;8.27;;;4.43;;
25846;SDS011;13676;50.168;8.568;2023-04-25T02:08:25;3.90;;;3.42;;
25846;SDS011;13676;50.168;8.568;2023-04-25T02:10:51;6.10;;;4.20;;
25846;SDS011;13676;50.168;8.568;2023-04-25T02:13:17;5.90;;;4.50;;
25846;SDS011;13676;50.168;8.568;2023-04-25T02:15:42;8.48;;;5.13;;
25846;SDS011;13676;50.168;8.568;2023-04-25T02:18:08;5.82;;;4.07;;
25846;SDS011;13676;50.168;8.568;2023-04-25T02:20:35;6.22;;;4.57;;
25846;SDS011;13676;50.168;8.568;2023-04-25T02:23:01;6.88;;;4.15;;
25846;SDS011;13676;50.168;8.568;2023-04-25T02:25:27;5.35;;;4.00;;
25846;SDS011;13676;50.168;8.568;2023-04-25T02:27:52;7.25;;;3.80;;
25846;SDS011;13676;50.168;8.568;2023-04-25T02:30:18;7.75;;;5.15;;
25846;SDS011;13676;50.168;8.568;2023-04-25T02:32:44;6.93;;;4.38;;
25846;SDS011;13676;50.168;8.568;2023-04-25T02:35:10;5.65;;;3.97;;
25846;SDS011;13676;50.168;8.568;2023-04-25T02:37:36;4.85;;;3.60;;
25846;SDS011;13676;50.168;8.568;2023-04-25T02:40:02;10.68;;;6.18;;
25846;SDS011;13676;50.168;8.568;2023-04-25T02:42:28;9.13;;;5.70;;
25846;SDS011;13676;50.168;8.568;2023-04-25T02:44:54;8.68;;;5.32;;
25846;SDS011;13676;50.168;8.568;2023-04-25T02:47:19;6.75;;;4.38;;
25846;SDS011;13676;50.168;8.568;2023-04-25T02:49:45;5.97;;;4.28;;
25846;SDS011;13676;50.168;8.568;2023-04-25T02:52:11;5.50;;;4.60;;
25846;SDS011;13676;50.168;8.568;2023-04-25T02:54:37;7.50;;;5.10;;
25846;SDS011;13676;50.168;8.568;2023-04-25T02:57:03;6.18;;;4.93;;
25846;SDS011;13676;50.168;8.568;2023-04-25T02:59:28;6.00;;;4.20;;
25846;SDS011;13676;50.168;8.568;2023-04-25T03:01:54;7.38;;;4.72;;
25846;SDS011;13676;50.168;8.568;2023-04-25T03:04:19;5.82;;;4.63;;
25846;SDS011;13676;50.168;8.568;2023-04-25T03:06:46;7.45;;;4.93;;
25846;SDS011;13676;50.168;8.568;2023-04-25T03:09:11;6.45;;;4.68;;
25846;SDS011;13676;50.168;8.568;2023-04-25T03:11:38;7.72;;;4.78;;
25846;SDS011;13676;50.168;8.568;2023-04-25T03:14:03;7.25;;;4.80;;
25846;SDS011;13676;50.168;8.568;2023-04-25T03:16:29;7.45;;;5.40;;
25846;SDS011;13676;50.168;8.568;2023-04-25T03:18:54;9.52;;;5.18;;
25846;SDS011;13676;50.168;8.568;2023-04-25T03:21:20;7.22;;;5.13;;
25846;SDS011;13676;50.168;8.568;2023-04-25T03:23:45;7.50;;;5.07;;
25846;SDS011;13676;50.168;8.568;2023-04-25T03:26:10;6.18;;;4.55;;
25846;SDS011;13676;50.168;8.568;2023-04-25T03:28:36;5.75;;;4.72;;
25846;SDS011;13676;50.168;8.568;2023-04-25T03:31:01;5.95;;;5.07;;
25846;SDS011;13676;50.168;8.568;2023-04-25T03:33:26;7.03;;;4.63;;
25846;SDS011;13676;50.168;8.568;2023-04-25T03:35:52;6.88;;;5.28;;
25846;SDS011;13676;50.168;8.568;2023-04-25T03:38:17;8.52;;;5.50;;
25846;SDS011;13676;50.168;8.568;2023-04-25T03:40:43;9.63;;;5.63;;
25846;SDS011;13676;50.168;8.568;2023-04-25T03:43:08;7.18;;;5.78;;
25846;SDS011;13676;50.168;8.568;2023-04-25T03:45:33;6.80;;;4.82;;
25846;SDS011;13676;50.168;8.568;2023-04-25T03:47:59;7.53;;;5.38;;
25846;SDS011;13676;50.168;8.568;2023-04-25T03:50:24;8.13;;;5.57;;
25846;SDS011;13676;50.168;8.568;2023-04-25T03:52:50;6.57;;;4.90;;
25846;SDS011;13676;50.168;8.568;2023-04-25T03:55:15;9.98;;;5.60;;
25846;SDS011;13676;50.168;8.568;2023-04-25T03:57:40;6.45;;;4.40;;
25846;SDS011;13676;50.168;8.568;2023-04-25T04:00:06;9.50;;;5.53;;
25846;SDS011;13676;50.168;8.568;2023-04-25T04:02:32;9.88;;;5.63;;
25846;SDS011;13676;50.168;8.568;2023-04-25T04:04:59;7.90;;;5.50;;
25846;SDS011;13676;50.168;8.568;2023-04-25T04:07:24;13.50;;;6.35;;
25846;SDS011;13676;50.168;8.568;2023-04-25T04:09:49;11.60;;;5.50;;
25846;SDS011;13676;50.168;8.568;2023-04-25T04:12:15;10.18;;;5.15;;
25846;SDS011;13676;50.168;8.568;2023-04-25T04:14:40;10.25;;;4.75;;
25846;SDS011;13676;50.168;8.568;2023-04-25T04:17:05;13.68;;;5.60;;
25846;SDS011;13676;50.168;8.568;2023-04-25T04:19:31;10.15;;;4.82;;
25846;SDS011;13676;50.168;8.568;2023-04-25T04:21:56;10.07;;;4.82;;
25846;SDS011;13676;50.168;8.568;2023-04-25T04:24:21;10.48;;;5.72;;
25846;SDS011;13676;50.168;8.568;2023-04-25T04:26:47;14.93;;;6.18;;
25846;SDS011;13676;50.168;8.568;2023-04-25T04:29:12;14.45;;;5.68;;
25846;SDS011;13676;50.168;8.568;2023-04-25T04:31:45;11.75;;;5.88;;
25846;SDS011;13676;50.168;8.568;2023-04-25T04:34:12;13.55;;;5.72;;
25846;SDS011;13676;50.168;8.568;2023-04-25T04:36:37;14.70;;;6.15;;
25846;SDS011;13676;50.168;8.568;2023-04-25T04:39:05;12.15;;;5.57;;
25846;SDS011;13676;50.168;8.568;2023-04-25T04:41:31;11.57;;;5.65;;
25846;SDS011;13676;50.168;8.568;2023-04-25T04:43:57;15.70;;;6.03;;
25846;SDS011;13676;50.168;8.568;2023-04-25T04:46:22;12.88;;;4.97;;
25846;SDS011;13676;50.168;8.568;2023-04-25T04:48:49;12.70;;;5.90;;
25846;SDS011;13676;50.168;8.568;2023-04-25T04:51:15;12.55;;;6.05;;
25846;SDS011;13676;50.168;8.568;2023-04-25T04:53:40;15.55;;;6.40;;
25846;SDS011;13676;50.168;8.568;2023-04-25T04:56:06;9.27;;;5.03;;
25846;SDS011;13676;50.168;8.568;2023-04-25T04:58:31;11.63;;;5.25;;
25846;SDS011;13676;50.168;8.568;2023-04-25T05:00:57;17.55;;;6.45;;
25846;SDS011;13676;50.168;8.568;2023-04-25T05:03:22;12.00;;;5.40;;
25846;SDS011;13676;50.168;8.568;2023-04-25T05:05:47;10.00;;;5.13;;
25846;SDS011;13676;50.168;8.568;2023-04-25T05:08:13;11.05;;;5.05;;
25846;SDS011;13676;50.168;8.568;2023-04-25T05:10:38;9.20;;;4.68;;
25846;SDS011;13676;50.168;8.568;2023-04-25T05:13:06;11.07;;;4.55;;
25846;SDS011;13676;50.168;8.568;2023-04-25T05:15:32;10.73;;;5.10;;
25846;SDS011;13676;50.168;8.568;2023-04-25T05:17:57;15.30;;;5.07;;
25846;SDS011;13676;50.168;8.568;2023-04-25T05:20:22;8.88;;;4.75;;
25846;SDS011;13676;50.168;8.568;2023-04-25T05:22:48;10.88;;;4.65;;
25846;SDS011;13676;50.168;8.568;2023-04-25T05:25:13;6.18;;;3.75;;
25846;SDS011;13676;50.168;8.568;2023-04-25T05:27:38;6.70;;;3.95;;
25846;SDS011;13676;50.168;8.568;2023-04-25T05:30:04;7.82;;;4.25;;
25846;SDS011;13676;50.168;8.568;2023-04-25T05:32:30;5.40;;;3.45;;
25846;SDS011;13676;50.168;8.568;2023-04-25T05:34:55;7.90;;;3.40;;
25846;SDS011;13676;50.168;8.568;2023-04-25T05:37:21;5.65;;;3.15;;
25846;SDS011;13676;50.168;8.568;2023-04-25T05:39:46;10.02;;;3.30;;
25846;SDS011;13676;50.168;8.568;2023-04-25T05:42:12;10.52;;;3.55;;
25846;SDS011;13676;50.168;8.568;2023-04-25T05:44:37;6.47;;;2.90;;
25846;SDS011;13676;50.168;8.568;2023-04-25T05:47:02;7.15;;;2.92;;
25846;SDS011;13676;50.168;8.568;2023-04-25T05:49:29;8.95;;;3.33;;
25846;SDS011;13676;50.168;8.568;2023-04-25T05:51:54;8.45;;;3.20;;
25846;SDS011;13676;50.168;8.568;2023-04-25T05:54:20;8.82;;;3.92;;
25846;SDS011;13676;50.168;8.568;2023-04-25T05:56:45;9.93;;;3.22;;
25846;SDS011;13676;50.168;8.568;2023-04-25T05:59:10;10.65;;;2.80;;
25846;SDS011;13676;50.168;8.568;2023-04-25T06:01:36;4.13;;;2.20;;
25846;SDS011;13676;50.168;8.568;2023-04-25T06:04:01;3.83;;;2.15;;
25846;SDS011;13676;50.168;8.568;2023-04-25T06:06:26;7.88;;;2.17;;
25846;SDS011;13676;50.168;8.568;2023-04-25T06:08:52;7.95;;;2.60;;
25846;SDS011;13676;50.168;8.568;2023-04-25T06:11:18;6.13;;;2.40;;
25846;SDS011;13676;50.168;8.568;2023-04-25T06:13:43;4.93;;;2.42;;
25846;SDS011;13676;50.168;8.568;2023-04-25T06:16:08;5.80;;;2.40;;
25846;SDS011;13676;50.168;8.568;2023-04-25T06:18:34;2.85;;;1.67;;
25846;SDS011;13676;50.168;8.568;2023-04-25T06:20:59;3.88;;;1.85;;
25846;SDS011;13676;50.168;8.568;2023-04-25T06:23:24;6.68;;;2.60;;
25846;SDS011;13676;50.168;8.568;2023-04-25T06:25:50;7.13;;;2.60;;
25846;SDS011;13676;50.168;8.568;2023-04-25T06:28:15;6.13;;;2.92;;
25846;SDS011;13676;50.168;8.568;2023-04-25T06:30:40;6.57;;;2.22;;
25846;SDS011;13676;50.168;8.568;2023-04-25T06:33:06;9.23;;;2.60;;
25846;SDS011;13676;50.168;8.568;2023-04-25T06:35:33;9.40;;;2.47;;
25846;SDS011;13676;50.168;8.568;2023-04-25T06:37:59;5.40;;;2.35;;
25846;SDS011;13676;50.168;8.568;2023-04-25T06:40:24;6.63;;;2.65;;
25846;SDS011;13676;50.168;8.568;2023-04-25T06:42:50;5.30;;;2.40;;
25846;SDS011;13676;50.168;8.568;2023-04-25T06:45:15;6.68;;;2.45;;
25846;SDS011;13676;50.168;8.568;2023-04-25T06:47:40;5.25;;;2.05;;
25846;SDS011;13676;50.168;8.568;2023-04-25T06:50:06;5.13;;;2.40;;
25846;SDS011;13676;50.168;8.568;2023-04-25T06:52:32;5.95;;;1.77;;
25846;SDS011;13676;50.168;8.568;2023-04-25T06:54:57;4.68;;;1.95;;
25846;SDS011;13676;50.168;8.568;2023-04-25T06:57:23;3.58;;;1.60;;
25846;SDS011;13676;50.168;8.568;2023-04-25T06:59:48;6.07;;;2.70;;
25846;SDS011;13676;50.168;8.568;2023-04-25T07:02:13;7.57;;;3.78;;
25846;SDS011;13676;50.168;8.568;2023-04-25T07:04:39;9.13;;;4.07;;
25846;SDS011;13676;50.168;8.568;2023-04-25T07:07:04;8.68;;;4.60;;
25846;SDS011;13676;50.168;8.568;2023-04-25T07:09:29;8.88;;;4.03;;
25846;SDS011;13676;50.168;8.568;2023-04-25T07:11:55;8.90;;;4.10;;
25846;SDS011;13676;50.168;8.568;2023-04-25T07:14:21;8.02;;;4.07;;
25846;SDS011;13676;50.168;8.568;2023-04-25T07:16:47;14.60;;;4.72;;
25846;SDS011;13676;50.168;8.568;2023-04-25T07:19:12;12.45;;;4.72;;
25846;SDS011;13676;50.168;8.568;2023-04-25T07:21:38;11.20;;;4.15;;
25846;SDS011;13676;50.168;8.568;2023-04-25T07:24:03;10.27;;;3.80;;
25846;SDS011;13676;50.168;8.568;2023-04-25T07:26:29;6.03;;;3.63;;
25846;SDS011;13676;50.168;8.568;2023-04-25T07:28:54;6.90;;;2.92;;
25846;SDS011;13676;50.168;8.568;2023-04-25T07:31:19;7.32;;;3.17;;
25846;SDS011;13676;50.168;8.568;2023-04-25T07:33:45;14.18;;;4.20;;
25846;SDS011;13676;50.168;8.568;2023-04-25T07:36:10;9.95;;;3.92;;
25846;SDS011;13676;50.168;8.568;2023-04-25T07:38:36;4.57;;;2.85;;
25846;SDS011;13676;50.168;8.568;2023-04-25T07:41:01;8.00;;;3.10;;
25846;SDS011;13676;50.168;8.568;2023-04-25T07:43:27;5.53;;;2.63;;
25846;SDS011;13676;50.168;8.568;2023-04-25T07:45:52;7.18;;;3.17;;
25846;SDS011;13676;50.168;8.568;2023-04-25T07:48:17;4.32;;;2.70;;
25846;SDS011;13676;50.168;8.568;2023-04-25T07:50:46;6.28;;;2.45;;
25846;SDS011;13676;50.168;8.568;2023-04-25T07:53:11;6.13;;;2.47;;
25846;SDS011;13676;50.168;8.568;2023-04-25T07:55:37;4.47;;;2.38;;
25846;SDS011;13676;50.168;8.568;2023-04-25T07:58:05;5.15;;;2.40;;
25846;SDS011;13676;50.168;8.568;2023-04-25T08:00:31;7.38;;;2.30;;
25846;SDS011;13676;50.168;8.568;2023-04-25T08:02:56;4.38;;;2.20;;
25846;SDS011;13676;50.168;8.568;2023-04-25T08:05:21;4.88;;;2.25;;
25846;SDS011;13676;50.168;8.568;2023-04-25T08:07:46;5.57;;;2.83;;
25846;SDS011;13676;50.168;8.568;2023-04-25T08:10:12;5.53;;;2.40;;
25846;SDS011;13676;50.168;8.568;2023-04-25T08:12:37;4.65;;;2.53;;
25846;SDS011;13676;50.168;8.568;2023-04-25T08:15:03;8.75;;;2.53;;
25846;SDS011;13676;50.168;8.568;2023-04-25T08:17:29;3.55;;;1.90;;
25846;SDS011;13676;50.168;8.568;2023-04-25T08:19:55;4.93;;;1.60;;
25846;SDS011;13676;50.168;8.568;2023-04-25T08:22:20;3.03;;;1.92;;
25846;SDS011;13676;50.168;8.568;2023-04-25T08:24:46;5.28;;;2.10;;
25846;SDS011;13676;50.168;8.568;2023-04-25T08:27:11;9.48;;;1.95;;
25846;SDS011;13676;50.168;8.568;2023-04-25T08:29:37;5.72;;;2.30;;
25846;SDS011;13676;50.168;8.568;2023-04-25T08:32:02;3.97;;;2.15;;
25846;SDS011;13676;50.168;8.568;2023-04-25T08:34:28;5.18;;;2.30;;
25846;SDS011;13676;50.168;8.568;2023-04-25T08:36:53;7.15;;;2.58;;
25846;SDS011;13676;50.168;8.568;2023-04-25T08:39:18;7.95;;;2.78;;
25846;SDS011;13676;50.168;8.568;2023-04-25T08:41:44;3.70;;;2.22;;
25846;SDS011;13676;50.168;8.568;2023-04-25T08:44:10;6.38;;;2.97;;
25846;SDS011;13676;50.168;8.568;2023-04-25T08:46:37;6.55;;;3.25;;
25846;SDS011;13676;50.168;8.568;2023-04-25T08:51:30;6.35;;;2.60;;
25846;SDS011;13676;50.168;8.568;2023-04-25T08:56:22;4.00;;;2.65;;
25846;SDS011;13676;50.168;8.568;2023-04-25T08:58:48;4.85;;;2.30;;
25846;SDS011;13676;50.168;8.568;2023-04-25T09:01:15;8.98;;;3.30;;
25846;SDS011;13676;50.168;8.568;2023-04-25T09:03:41;5.72;;;2.90;;
25846;SDS011;13676;50.168;8.568;2023-04-25T09:06:07;3.95;;;2.42;;
25846;SDS011;13676;50.168;8.568;2023-04-25T09:08:35;5.35;;;2.25;;
25846;SDS011;13676;50.168;8.568;2023-04-25T09:11:01;6.55;;;2.50;;
25846;SDS011;13676;50.168;8.568;2023-04-25T09:13:27;4.55;;;2.60;;
25846;SDS011;13676;50.168;8.568;2023-04-25T09:15:55;5.05;;;3.08;;
25846;SDS011;13676;50.168;8.568;2023-04-25T09:18:22;5.95;;;2.58;;
25846;SDS011;13676;50.168;8.568;2023-04-25T09:20:54;13.57;;;2.72;;
25846;SDS011;13676;50.168;8.568;2023-04-25T09:23:21;6.75;;;2.40;;
25846;SDS011;13676;50.168;8.568;2023-04-25T09:25:48;8.98;;;2.78;;
25846;SDS011;13676;50.168;8.568;2023-04-25T09:28:14;5.25;;;2.83;;
25846;SDS011;13676;50.168;8.568;2023-04-25T09:30:40;8.30;;;3.50;;
25846;SDS011;13676;50.168;8.568;2023-04-25T09:33:05;11.68;;;3.53;;
25846;SDS011;13676;50.168;8.568;2023-04-25T09:35:38;5.72;;;2.53;;
25846;SDS011;13676;50.168;8.568;2023-04-25T09:38:09;6.47;;;2.58;;
25846;SDS011;13676;50.168;8.568;2023-04-25T09:40:39;12.32;;;3.20;;
25846;SDS011;13676;50.168;8.568;2023-04-25T09:43:08;9.32;;;3.35;;
25846;SDS011;13676;50.168;8.568;2023-04-25T09:45:40;6.43;;;2.88;;
25846;SDS011;13676;50.168;8.568;2023-04-25T09:48:10;5.80;;;2.70;;
25846;SDS011;13676;50.168;8.568;2023-04-25T09:50:36;6.30;;;2.78;;
25846;SDS011;13676;50.168;8.568;2023-04-25T09:53:02;6.65;;;3.08;;
25846;SDS011;13676;50.168;8.568;2023-04-25T09:55:29;5.13;;;2.90;;
25846;SDS011;13676;50.168;8.568;2023-04-25T09:57:54;7.75;;;2.75;;
25846;SDS011;13676;50.168;8.568;2023-04-25T10:00:22;5.22;;;2.70;;
25846;SDS011;13676;50.168;8.568;2023-04-25T10:02:48;4.93;;;2.85;;
25846;SDS011;13676;50.168;8.568;2023-04-25T10:05:14;7.75;;;2.63;;
25846;SDS011;13676;50.168;8.568;2023-04-25T10:07:39;7.22;;;2.70;;
25846;SDS011;13676;50.168;8.568;2023-04-25T10:10:05;8.55;;;2.85;;
25846;SDS011;13676;50.168;8.568;2023-04-25T10:12:32;6.85;;;2.80;;
25846;SDS011;13676;50.168;8.568;2023-04-25T10:15:00;6.40;;;2.90;;
25846;SDS011;13676;50.168;8.568;2023-04-25T10:17:26;5.70;;;2.60;;
25846;SDS011;13676;50.168;8.568;2023-04-25T10:19:54;5.65;;;3.35;;
25846;SDS011;13676;50.168;8.568;2023-04-25T10:22:26;9.10;;;3.50;;
25846;SDS011;13676;50.168;8.568;2023-04-25T10:24:55;13.05;;;4.32;;
25846;SDS011;13676;50.168;8.568;2023-04-25T10:27:21;8.88;;;4.45;;
25846;SDS011;13676;50.168;8.568;2023-04-25T10:29:59;7.07;;;3.22;;
25846;SDS011;13676;50.168;8.568;2023-04-25T10:32:45;10.55;;;4.03;;
25846;SDS011;13676;50.168;8.568;2023-04-25T10:40:34;9.30;;;3.85;;
25846;SDS011;13676;50.168;8.568;2023-04-25T10:43:33;9.80;;;3.80;;
25846;SDS011;13676;50.168;8.568;2023-04-25T10:46:13;7.65;;;3.28;;
25846;SDS011;13676;50.168;8.568;2023-04-25T10:48:46;6.47;;;3.28;;
25846;SDS011;13676;50.168;8.568;2023-04-25T10:56:20;4.88;;;2.85;;
25846;SDS011;13676;50.168;8.568;2023-04-25T10:58:46;8.85;;;3.00;;
25846;SDS011;13676;50.168;8.568;2023-04-25T11:01:15;11.38;;;3.80;;
25846;SDS011;13676;50.168;8.568;2023-04-25T11:03:41;8.80;;;2.92;;
25846;SDS011;13676;50.168;8.568;2023-04-25T11:06:32;8.50;;;2.65;;
25846;SDS011;13676;50.168;8.568;2023-04-25T11:09:14;8.15;;;3.35;;
25846;SDS011;13676;50.168;8.568;2023-04-25T11:11:40;5.80;;;3.15;;
25846;SDS011;13676;50.168;8.568;2023-04-25T11:14:05;6.25;;;2.70;;
25846;SDS011;13676;50.168;8.568;2023-04-25T11:16:31;7.00;;;2.70;;
25846;SDS011;13676;50.168;8.568;2023-04-25T11:18:57;7.80;;;2.88;;
25846;SDS011;13676;50.168;8.568;2023-04-25T11:21:24;8.43;;;2.70;;
25846;SDS011;13676;50.168;8.568;2023-04-25T11:23:51;11.95;;;2.80;;
25846;SDS011;13676;50.168;8.568;2023-04-25T11:26:18;8.55;;;2.50;;
25846;SDS011;13676;50.168;8.568;2023-04-25T11:28:44;7.22;;;2.60;;
25846;SDS011;13676;50.168;8.568;2023-04-25T11:31:10;4.82;;;2.03;;
25846;SDS011;13676;50.168;8.568;2023-04-25T11:33:35;7.30;;;2.15;;
25846;SDS011;13676;50.168;8.568;2023-04-25T11:36:01;5.13;;;1.80;;
25846;SDS011;13676;50.168;8.568;2023-04-25T11:38:26;5.53;;;2.00;;
25846;SDS011;13676;50.168;8.568;2023-04-25T11:40:52;5.75;;;1.67;;
25846;SDS011;13676;50.168;8.568;2023-04-25T11:43:17;7.95;;;2.42;;
25846;SDS011;13676;50.168;8.568;2023-04-25T11:45:51;8.38;;;2.20;;
25846;SDS011;13676;50.168;8.568;2023-04-25T11:48:17;6.10;;;2.03;;
25846;SDS011;13676;50.168;8.568;2023-04-25T11:50:43;4.55;;;1.83;;
25846;SDS011;13676;50.168;8.568;2023-04-25T11:53:08;3.97;;;2.15;;
25846;SDS011;13676;50.168;8.568;2023-04-25T11:55:35;6.30;;;2.30;;
25846;SDS011;13676;50.168;8.568;2023-04-25T11:58:01;5.57;;;1.95;;
25846;SDS011;13676;50.168;8.568;2023-04-25T12:00:27;7.55;;;2.30;;
25846;SDS011;13676;50.168;8.568;2023-04-25T12:02:53;7.50;;;2.40;;
25846;SDS011;13676;50.168;8.568;2023-04-25T12:05:19;8.20;;;2.95;;
25846;SDS011;13676;50.168;8.568;2023-04-25T12:07:45;8.35;;;2.45;;
25846;SDS011;13676;50.168;8.568;2023-04-25T12:10:12;9.10;;;2.63;;
25846;SDS011;13676;50.168;8.568;2023-04-25T12:12:41;4.32;;;2.10;;
25846;SDS011;13676;50.168;8.568;2023-04-25T12:15:18;7.15;;;2.25;;
25846;SDS011;13676;50.168;8.568;2023-04-25T12:17:48;7.97;;;2.50;;
25846;SDS011;13676;50.168;8.568;2023-04-25T12:20:16;7.55;;;2.63;;
25846;SDS011;13676;50.168;8.568;2023-04-25T12:22:43;8.45;;;2.67;;
25846;SDS011;13676;50.168;8.568;2023-04-25T12:25:10;13.73;;;3.08;;
25846;SDS011;13676;50.168;8.568;2023-04-25T12:27:37;8.50;;;2.90;;
25846;SDS011;13676;50.168;8.568;2023-04-25T12:30:03;8.00;;;2.97;;
25846;SDS011;13676;50.168;8.568;2023-04-25T12:32:28;16.98;;;3.67;;
25846;SDS011;13676;50.168;8.568;2023-04-25T12:34:54;12.40;;;2.92;;
25846;SDS011;13676;50.168;8.568;2023-04-25T12:37:20;7.82;;;2.72;;
25846;SDS011;13676;50.168;8.568;2023-04-25T12:39:45;10.18;;;3.03;;
25846;SDS011;13676;50.168;8.568;2023-04-25T12:42:11;15.80;;;3.22;;
25846;SDS011;13676;50.168;8.568;2023-04-25T12:44:37;8.02;;;2.47;;
25846;SDS011;13676;50.168;8.568;2023-04-25T12:47:03;9.25;;;2.22;;
25846;SDS011;13676;50.168;8.568;2023-04-25T12:49:28;5.40;;;2.20;;
25846;SDS011;13676;50.168;8.568;2023-04-25T12:51:54;9.38;;;2.28;;
25846;SDS011;13676;50.168;8.568;2023-04-25T12:54:19;8.88;;;2.80;;
25846;SDS011;13676;50.168;8.568;2023-04-25T12:56:45;7.88;;;2.58;;
25846;SDS011;13676;50.168;8.568;2023-04-25T12:59:11;6.53;;;2.90;;
25846;SDS011;13676;50.168;8.568;2023-04-25T13:01:36;7.60;;;2.72;;
25846;SDS011;13676;50.168;8.568;2023-04-25T13:04:02;7.18;;;3.25;;
25846;SDS011;13676;50.168;8.568;2023-04-25T13:06:27;7.88;;;3.13;;
25846;SDS011;13676;50.168;8.568;2023-04-25T13:08:54;9.25;;;3.28;;
25846;SDS011;13676;50.168;8.568;2023-04-25T13:11:20;5.22;;;2.50;;
25846;SDS011;13676;50.168;8.568;2023-04-25T13:13:45;5.43;;;2.85;;
25846;SDS011;13676;50.168;8.568;2023-04-25T13:16:10;7.07;;;3.40;;
25846;SDS011;13676;50.168;8.568;2023-04-25T13:18:38;5.68;;;2.95;;
25846;SDS011;13676;50.168;8.568;2023-04-25T13:21:04;9.07;;;3.03;;
25846;SDS011;13676;50.168;8.568;2023-04-25T13:23:29;8.98;;;2.75;;
25846;SDS011;13676;50.168;8.568;2023-04-25T13:25:55;7.72;;;2.75;;
25846;SDS011;13676;50.168;8.568;2023-04-25T13:28:23;8.38;;;2.80;;
25846;SDS011;13676;50.168;8.568;2023-04-25T13:30:48;11.25;;;3.20;;
25846;SDS011;13676;50.168;8.568;2023-04-25T13:33:14;9.57;;;3.08;;
25846;SDS011;13676;50.168;8.568;2023-04-25T13:35:40;7.13;;;2.88;;
25846;SDS011;13676;50.168;8.568;2023-04-25T13:38:11;15.95;;;3.22;;
25846;SDS011;13676;50.168;8.568;2023-04-25T13:40:37;10.27;;;2.65;;
25846;SDS011;13676;50.168;8.568;2023-04-25T13:43:02;9.25;;;2.83;;
25846;SDS011;13676;50.168;8.568;2023-04-25T13:45:27;12.05;;;2.83;;
25846;SDS011;13676;50.168;8.568;2023-04-25T13:47:53;8.00;;;2.80;;
25846;SDS011;13676;50.168;8.568;2023-04-25T13:50:18;11.15;;;2.42;;
25846;SDS011;13676;50.168;8.568;2023-04-25T13:52:44;7.20;;;1.98;;
25846;SDS011;13676;50.168;8.568;2023-04-25T13:55:10;7.90;;;2.38;;
25846;SDS011;13676;50.168;8.568;2023-04-25T13:57:35;4.53;;;1.73;;
25846;SDS011;13676;50.168;8.568;2023-04-25T14:00:02;6.75;;;2.22;;
25846;SDS011;13676;50.168;8.568;2023-04-25T14:02:33;4.88;;;1.85;;
25846;SDS011;13676;50.168;8.568;2023-04-25T14:04:59;5.93;;;2.10;;
25846;SDS011;13676;50.168;8.568;2023-04-25T14:07:24;7.97;;;2.15;;
25846;SDS011;13676;50.168;8.568;2023-04-25T14:09:49;7.57;;;2.10;;
25846;SDS011;13676;50.168;8.568;2023-04-25T14:12:15;7.07;;;1.90;;
25846;SDS011;13676;50.168;8.568;2023-04-25T14:14:41;7.93;;;1.55;;
25846;SDS011;13676;50.168;8.568;2023-04-25T14:17:07;7.22;;;1.90;;
25846;SDS011;13676;50.168;8.568;2023-04-25T14:19:33;6.82;;;1.88;;
25846;SDS011;13676;50.168;8.568;2023-04-25T14:21:58;6.53;;;2.05;;
25846;SDS011;13676;50.168;8.568;2023-04-25T14:24:24;5.55;;;1.75;;
25846;SDS011;13676;50.168;8.568;2023-04-25T14:26:50;6.90;;;1.52;;
25846;SDS011;13676;50.168;8.568;2023-04-25T14:29:15;12.93;;;2.03;;
25846;SDS011;13676;50.168;8.568;2023-04-25T14:31:40;8.20;;;2.08;;
25846;SDS011;13676;50.168;8.568;2023-04-25T14:34:06;11.70;;;2.35;;
25846;SDS011;13676;50.168;8.568;2023-04-25T14:36:32;10.40;;;2.30;;
25846;SDS011;13676;50.168;8.568;2023-04-25T14:38:58;8.07;;;1.60;;
25846;SDS011;13676;50.168;8.568;2023-04-25T14:41:24;7.65;;;2.30;;
25846;SDS011;13676;50.168;8.568;2023-04-25T14:43:50;12.52;;;2.10;;
25846;SDS011;13676;50.168;8.568;2023-04-25T14:46:15;6.85;;;1.98;;
25846;SDS011;13676;50.168;8.568;2023-04-25T14:48:40;5.25;;;1.75;;
25846;SDS011;13676;50.168;8.568;2023-04-25T14:51:06;6.70;;;2.33;;
25846;SDS011;13676;50.168;8.568;2023-04-25T14:53:32;6.95;;;2.28;;
25846;SDS011;13676;50.168;8.568;2023-04-25T14:55:57;8.82;;;2.25;;
25846;SDS011;13676;50.168;8.568;2023-04-25T14:58:23;7.63;;;2.47;;